sensor_id;sensor_type;location;lat;lon;timestamp;P1;durP1;ratioP1;P2;durP2;ratioP2
25409;SDS011;13339;50.840;4.346;2022-12-07T00:02:22;26.00;;;14.53;;
25409;SDS011;13339;50.840;4.346;2022-12-07T00:04:48;19.80;;;13.27;;
25409;SDS011;13339;50.840;4.346;2022-12-07T00:07:14;22.10;;;14.93;;
25409;SDS011;13339;50.840;4.346;2022-12-07T00:09:39;18.63;;;13.20;;
25409;SDS011;13339;50.840;4.346;2022-12-07T00:12:06;25.90;;;13.83;;
25409;SDS011;13339;50.840;4.346;2022-12-07T00:14:33;23.97;;;15.20;;
25409;SDS011;13339;50.840;4.346;2022-12-07T00:16:58;26.10;;;15.20;;
25409;SDS011;13339;50.840;4.346;2022-12-07T00:19:24;23.70;;;14.97;;
25409;SDS011;13339;50.840;4.346;2022-12-07T00:21:49;21.47;;;15.77;;
25409;SDS011;13339;50.840;4.346;2022-12-07T00:24:15;26.47;;;15.53;;
25409;SDS011;13339;50.840;4.346;2022-12-07T00:26:41;23.03;;;15.67;;
25409;SDS011;13339;50.840;4.346;2022-12-07T00:29:17;23.27;;;15.00;;
25409;SDS011;13339;50.840;4.346;2022-12-07T00:31:44;21.07;;;14.53;;
25409;SDS011;13339;50.840;4.346;2022-12-07T00:34:18;22.00;;;15.03;;
25409;SDS011;13339;50.840;4.346;2022-12-07T00:36:45;21.50;;;15.17;;
25409;SDS011;13339;50.840;4.346;2022-12-07T00:39:11;29.73;;;15.97;;
25409;SDS011;13339;50.840;4.346;2022-12-07T00:41:36;21.87;;;15.77;;
25409;SDS011;13339;50.840;4.346;2022-12-07T00:44:02;30.97;;;16.73;;
25409;SDS011;13339;50.840;4.346;2022-12-07T00:46:28;29.00;;;17.03;;
25409;SDS011;13339;50.840;4.346;2022-12-07T00:48:54;26.97;;;16.80;;
25409;SDS011;13339;50.840;4.346;2022-12-07T00:51:21;22.53;;;15.70;;
25409;SDS011;13339;50.840;4.346;2022-12-07T00:53:48;24.70;;;16.17;;
25409;SDS011;13339;50.840;4.346;2022-12-07T00:56:15;25.40;;;15.63;;
25409;SDS011;13339;50.840;4.346;2022-12-07T00:58:42;24.87;;;15.27;;
25409;SDS011;13339;50.840;4.346;2022-12-07T01:01:08;25.00;;;16.13;;
25409;SDS011;13339;50.840;4.346;2022-12-07T01:03:35;27.43;;;15.40;;
25409;SDS011;13339;50.840;4.346;2022-12-07T01:06:01;23.63;;;16.00;;
25409;SDS011;13339;50.840;4.346;2022-12-07T01:08:27;21.17;;;15.03;;
25409;SDS011;13339;50.840;4.346;2022-12-07T01:11:03;23.90;;;15.67;;
25409;SDS011;13339;50.840;4.346;2022-12-07T01:13:31;22.73;;;15.00;;
25409;SDS011;13339;50.840;4.346;2022-12-07T01:15:59;22.50;;;15.07;;
25409;SDS011;13339;50.840;4.346;2022-12-07T01:18:29;27.53;;;15.33;;
25409;SDS011;13339;50.840;4.346;2022-12-07T01:21:00;21.60;;;14.87;;
25409;SDS011;13339;50.840;4.346;2022-12-07T01:23:30;23.00;;;15.00;;
25409;SDS011;13339;50.840;4.346;2022-12-07T01:25:56;22.63;;;15.37;;
25409;SDS011;13339;50.840;4.346;2022-12-07T01:28:23;27.37;;;15.90;;
25409;SDS011;13339;50.840;4.346;2022-12-07T01:30:59;25.30;;;15.27;;
25409;SDS011;13339;50.840;4.346;2022-12-07T01:33:29;23.57;;;15.53;;
25409;SDS011;13339;50.840;4.346;2022-12-07T01:36:00;22.43;;;15.40;;
25409;SDS011;13339;50.840;4.346;2022-12-07T01:38:31;22.90;;;15.23;;
25409;SDS011;13339;50.840;4.346;2022-12-07T01:40:58;27.37;;;15.40;;
25409;SDS011;13339;50.840;4.346;2022-12-07T01:43:25;23.73;;;15.03;;
25409;SDS011;13339;50.840;4.346;2022-12-07T01:45:52;20.57;;;14.77;;
25409;SDS011;13339;50.840;4.346;2022-12-07T01:48:20;24.30;;;15.87;;
25409;SDS011;13339;50.840;4.346;2022-12-07T01:50:59;26.30;;;15.03;;
25409;SDS011;13339;50.840;4.346;2022-12-07T01:53:29;20.30;;;14.73;;
25409;SDS011;13339;50.840;4.346;2022-12-07T01:55:56;22.83;;;15.33;;
25409;SDS011;13339;50.840;4.346;2022-12-07T01:58:24;23.37;;;14.47;;
25409;SDS011;13339;50.840;4.346;2022-12-07T02:00:50;20.97;;;14.77;;
25409;SDS011;13339;50.840;4.346;2022-12-07T02:03:24;23.33;;;14.67;;
25409;SDS011;13339;50.840;4.346;2022-12-07T02:05:54;22.30;;;15.07;;
25409;SDS011;13339;50.840;4.346;2022-12-07T02:08:21;20.23;;;14.27;;
25409;SDS011;13339;50.840;4.346;2022-12-07T02:10:47;22.53;;;14.73;;
25409;SDS011;13339;50.840;4.346;2022-12-07T02:13:19;23.53;;;14.93;;
25409;SDS011;13339;50.840;4.346;2022-12-07T02:24:30;21.97;;;14.37;;
25409;SDS011;13339;50.840;4.346;2022-12-07T02:29:58;22.07;;;13.50;;
25409;SDS011;13339;50.840;4.346;2022-12-07T02:35:20;18.43;;;13.43;;
25409;SDS011;13339;50.840;4.346;2022-12-07T02:37:57;24.50;;;14.53;;
25409;SDS011;13339;50.840;4.346;2022-12-07T02:40:27;19.80;;;13.77;;
25409;SDS011;13339;50.840;4.346;2022-12-07T02:43:08;23.97;;;14.30;;
25409;SDS011;13339;50.840;4.346;2022-12-07T02:45:40;21.87;;;14.20;;
25409;SDS011;13339;50.840;4.346;2022-12-07T02:48:07;21.77;;;14.27;;
25409;SDS011;13339;50.840;4.346;2022-12-07T02:50:36;21.57;;;13.93;;
25409;SDS011;13339;50.840;4.346;2022-12-07T02:53:02;20.67;;;14.60;;
25409;SDS011;13339;50.840;4.346;2022-12-07T02:55:29;20.53;;;13.93;;
25409;SDS011;13339;50.840;4.346;2022-12-07T02:58:05;19.37;;;12.80;;
25409;SDS011;13339;50.840;4.346;2022-12-07T03:00:54;20.47;;;13.47;;
25409;SDS011;13339;50.840;4.346;2022-12-07T03:03:28;29.30;;;13.80;;
25409;SDS011;13339;50.840;4.346;2022-12-07T03:10:58;24.43;;;13.73;;
25409;SDS011;13339;50.840;4.346;2022-12-07T03:13:33;21.13;;;13.90;;
25409;SDS011;13339;50.840;4.346;2022-12-07T03:18:53;20.23;;;14.17;;
25409;SDS011;13339;50.840;4.346;2022-12-07T03:21:25;24.23;;;14.37;;
25409;SDS011;13339;50.840;4.346;2022-12-07T03:23:55;21.40;;;13.37;;
25409;SDS011;13339;50.840;4.346;2022-12-07T03:26:24;20.63;;;14.17;;
25409;SDS011;13339;50.840;4.346;2022-12-07T03:28:56;22.90;;;14.07;;
25409;SDS011;13339;50.840;4.346;2022-12-07T03:31:28;22.20;;;14.37;;
25409;SDS011;13339;50.840;4.346;2022-12-07T03:36:34;21.80;;;13.60;;
25409;SDS011;13339;50.840;4.346;2022-12-07T03:39:07;26.27;;;14.17;;
25409;SDS011;13339;50.840;4.346;2022-12-07T03:41:36;21.50;;;13.63;;
25409;SDS011;13339;50.840;4.346;2022-12-07T03:44:03;18.93;;;13.00;;
25409;SDS011;13339;50.840;4.346;2022-12-07T03:49:25;22.70;;;12.80;;
25409;SDS011;13339;50.840;4.346;2022-12-07T03:52:12;19.43;;;12.77;;
25409;SDS011;13339;50.840;4.346;2022-12-07T03:57:30;18.93;;;12.47;;
25409;SDS011;13339;50.840;4.346;2022-12-07T03:59:58;18.87;;;13.13;;
25409;SDS011;13339;50.840;4.346;2022-12-07T04:02:25;18.83;;;12.40;;
25409;SDS011;13339;50.840;4.346;2022-12-07T04:04:52;17.40;;;12.57;;
25409;SDS011;13339;50.840;4.346;2022-12-07T04:07:17;17.73;;;12.87;;
25409;SDS011;13339;50.840;4.346;2022-12-07T04:09:43;16.33;;;11.57;;
25409;SDS011;13339;50.840;4.346;2022-12-07T04:12:09;18.87;;;12.03;;
25409;SDS011;13339;50.840;4.346;2022-12-07T04:14:35;19.33;;;12.97;;
25409;SDS011;13339;50.840;4.346;2022-12-07T04:17:01;20.33;;;13.23;;
25409;SDS011;13339;50.840;4.346;2022-12-07T04:19:30;19.67;;;12.63;;
25409;SDS011;13339;50.840;4.346;2022-12-07T04:21:58;23.27;;;13.03;;
25409;SDS011;13339;50.840;4.346;2022-12-07T04:24:25;19.47;;;12.70;;
25409;SDS011;13339;50.840;4.346;2022-12-07T04:26:51;18.63;;;12.90;;
25409;SDS011;13339;50.840;4.346;2022-12-07T04:29:17;21.97;;;13.47;;
25409;SDS011;13339;50.840;4.346;2022-12-07T04:31:44;20.63;;;13.10;;
25409;SDS011;13339;50.840;4.346;2022-12-07T04:34:10;20.40;;;13.37;;
25409;SDS011;13339;50.840;4.346;2022-12-07T04:36:36;21.53;;;13.27;;
25409;SDS011;13339;50.840;4.346;2022-12-07T04:39:03;21.13;;;13.80;;
25409;SDS011;13339;50.840;4.346;2022-12-07T04:41:30;27.27;;;14.83;;
25409;SDS011;13339;50.840;4.346;2022-12-07T04:43:56;19.60;;;13.73;;
25409;SDS011;13339;50.840;4.346;2022-12-07T04:46:24;18.33;;;13.13;;
25409;SDS011;13339;50.840;4.346;2022-12-07T04:48:52;20.47;;;13.73;;
25409;SDS011;13339;50.840;4.346;2022-12-07T04:51:19;21.57;;;13.53;;
25409;SDS011;13339;50.840;4.346;2022-12-07T04:53:49;21.50;;;14.20;;
25409;SDS011;13339;50.840;4.346;2022-12-07T04:56:15;24.17;;;14.47;;
25409;SDS011;13339;50.840;4.346;2022-12-07T04:58:42;23.47;;;14.03;;
25409;SDS011;13339;50.840;4.346;2022-12-07T05:01:09;18.47;;;13.97;;
25409;SDS011;13339;50.840;4.346;2022-12-07T05:03:38;21.53;;;13.83;;
25409;SDS011;13339;50.840;4.346;2022-12-07T05:06:04;20.63;;;14.17;;
25409;SDS011;13339;50.840;4.346;2022-12-07T05:08:30;20.50;;;13.63;;
25409;SDS011;13339;50.840;4.346;2022-12-07T05:10:57;19.00;;;13.07;;
25409;SDS011;13339;50.840;4.346;2022-12-07T05:13:22;18.67;;;13.77;;
25409;SDS011;13339;50.840;4.346;2022-12-07T05:15:48;17.77;;;12.90;;
25409;SDS011;13339;50.840;4.346;2022-12-07T05:18:14;24.83;;;13.80;;
25409;SDS011;13339;50.840;4.346;2022-12-07T05:20:40;20.17;;;13.40;;
25409;SDS011;13339;50.840;4.346;2022-12-07T05:23:07;19.83;;;12.90;;
25409;SDS011;13339;50.840;4.346;2022-12-07T05:25:33;30.50;;;13.93;;
25409;SDS011;13339;50.840;4.346;2022-12-07T05:27:58;19.23;;;13.00;;
25409;SDS011;13339;50.840;4.346;2022-12-07T05:30:24;18.57;;;13.00;;
25409;SDS011;13339;50.840;4.346;2022-12-07T05:32:50;19.43;;;13.40;;
25409;SDS011;13339;50.840;4.346;2022-12-07T05:35:17;20.77;;;13.17;;
25409;SDS011;13339;50.840;4.346;2022-12-07T05:37:43;25.17;;;13.13;;
25409;SDS011;13339;50.840;4.346;2022-12-07T05:40:09;20.13;;;12.77;;
25409;SDS011;13339;50.840;4.346;2022-12-07T05:42:36;18.90;;;13.23;;
25409;SDS011;13339;50.840;4.346;2022-12-07T05:45:02;23.33;;;13.97;;
25409;SDS011;13339;50.840;4.346;2022-12-07T05:47:28;18.47;;;12.07;;
25409;SDS011;13339;50.840;4.346;2022-12-07T05:49:53;20.67;;;12.53;;
25409;SDS011;13339;50.840;4.346;2022-12-07T05:52:19;19.73;;;13.17;;
25409;SDS011;13339;50.840;4.346;2022-12-07T05:54:44;20.60;;;11.77;;
25409;SDS011;13339;50.840;4.346;2022-12-07T05:57:10;17.90;;;12.27;;
25409;SDS011;13339;50.840;4.346;2022-12-07T05:59:35;17.83;;;12.17;;
25409;SDS011;13339;50.840;4.346;2022-12-07T06:02:05;18.30;;;12.63;;
25409;SDS011;13339;50.840;4.346;2022-12-07T06:04:34;18.30;;;12.87;;
25409;SDS011;13339;50.840;4.346;2022-12-07T06:07:01;18.70;;;12.40;;
25409;SDS011;13339;50.840;4.346;2022-12-07T06:09:27;16.00;;;12.00;;
25409;SDS011;13339;50.840;4.346;2022-12-07T06:11:54;18.37;;;12.40;;
25409;SDS011;13339;50.840;4.346;2022-12-07T06:14:38;22.63;;;12.90;;
25409;SDS011;13339;50.840;4.346;2022-12-07T06:17:04;21.10;;;12.60;;
25409;SDS011;13339;50.840;4.346;2022-12-07T06:19:30;22.50;;;12.97;;
25409;SDS011;13339;50.840;4.346;2022-12-07T06:21:56;24.37;;;12.83;;
25409;SDS011;13339;50.840;4.346;2022-12-07T06:24:22;17.60;;;12.37;;
25409;SDS011;13339;50.840;4.346;2022-12-07T06:26:48;20.03;;;12.73;;
25409;SDS011;13339;50.840;4.346;2022-12-07T06:29:14;18.30;;;11.90;;
25409;SDS011;13339;50.840;4.346;2022-12-07T06:31:41;18.93;;;11.80;;
25409;SDS011;13339;50.840;4.346;2022-12-07T06:34:09;18.00;;;11.87;;
25409;SDS011;13339;50.840;4.346;2022-12-07T06:36:37;23.67;;;12.00;;
25409;SDS011;13339;50.840;4.346;2022-12-07T06:39:03;17.33;;;11.03;;
25409;SDS011;13339;50.840;4.346;2022-12-07T06:41:30;16.87;;;10.87;;
25409;SDS011;13339;50.840;4.346;2022-12-07T06:43:55;18.10;;;11.77;;
25409;SDS011;13339;50.840;4.346;2022-12-07T06:46:21;20.33;;;11.87;;
25409;SDS011;13339;50.840;4.346;2022-12-07T06:48:46;17.23;;;11.23;;
25409;SDS011;13339;50.840;4.346;2022-12-07T06:51:12;19.20;;;12.30;;
25409;SDS011;13339;50.840;4.346;2022-12-07T06:53:38;16.37;;;12.10;;
25409;SDS011;13339;50.840;4.346;2022-12-07T06:56:04;16.57;;;11.70;;
25409;SDS011;13339;50.840;4.346;2022-12-07T06:58:30;21.30;;;11.70;;
25409;SDS011;13339;50.840;4.346;2022-12-07T07:00:56;14.60;;;11.33;;
25409;SDS011;13339;50.840;4.346;2022-12-07T07:03:22;20.07;;;12.13;;
25409;SDS011;13339;50.840;4.346;2022-12-07T07:05:47;17.90;;;11.53;;
25409;SDS011;13339;50.840;4.346;2022-12-07T07:08:13;17.37;;;10.77;;
25409;SDS011;13339;50.840;4.346;2022-12-07T07:10:40;16.10;;;10.07;;
25409;SDS011;13339;50.840;4.346;2022-12-07T07:13:06;16.33;;;10.17;;
25409;SDS011;13339;50.840;4.346;2022-12-07T07:15:32;17.73;;;10.50;;
25409;SDS011;13339;50.840;4.346;2022-12-07T07:17:58;17.50;;;11.10;;
25409;SDS011;13339;50.840;4.346;2022-12-07T07:20:24;15.47;;;10.57;;
25409;SDS011;13339;50.840;4.346;2022-12-07T07:22:50;19.43;;;11.87;;
25409;SDS011;13339;50.840;4.346;2022-12-07T07:25:19;20.83;;;11.37;;
25409;SDS011;13339;50.840;4.346;2022-12-07T07:27:44;16.80;;;12.00;;
25409;SDS011;13339;50.840;4.346;2022-12-07T07:30:10;18.47;;;11.83;;
25409;SDS011;13339;50.840;4.346;2022-12-07T07:32:36;20.17;;;12.27;;
25409;SDS011;13339;50.840;4.346;2022-12-07T07:35:02;22.30;;;13.70;;
25409;SDS011;13339;50.840;4.346;2022-12-07T07:37:28;19.87;;;12.20;;
25409;SDS011;13339;50.840;4.346;2022-12-07T07:39:53;17.50;;;12.43;;
25409;SDS011;13339;50.840;4.346;2022-12-07T07:42:19;19.53;;;12.57;;
25409;SDS011;13339;50.840;4.346;2022-12-07T07:44:44;21.13;;;13.10;;
25409;SDS011;13339;50.840;4.346;2022-12-07T07:47:10;20.50;;;12.83;;
25409;SDS011;13339;50.840;4.346;2022-12-07T07:49:35;20.67;;;12.90;;
25409;SDS011;13339;50.840;4.346;2022-12-07T07:52:01;22.90;;;12.80;;
25409;SDS011;13339;50.840;4.346;2022-12-07T07:54:27;22.27;;;12.47;;
25409;SDS011;13339;50.840;4.346;2022-12-07T07:56:52;18.77;;;12.37;;
25409;SDS011;13339;50.840;4.346;2022-12-07T07:59:18;19.57;;;12.63;;
25409;SDS011;13339;50.840;4.346;2022-12-07T08:01:44;21.83;;;11.40;;
25409;SDS011;13339;50.840;4.346;2022-12-07T08:04:09;17.43;;;11.37;;
25409;SDS011;13339;50.840;4.346;2022-12-07T08:06:35;21.00;;;11.83;;
25409;SDS011;13339;50.840;4.346;2022-12-07T08:09:01;17.30;;;11.80;;
25409;SDS011;13339;50.840;4.346;2022-12-07T08:11:27;20.50;;;13.10;;
25409;SDS011;13339;50.840;4.346;2022-12-07T08:13:52;19.77;;;12.63;;
25409;SDS011;13339;50.840;4.346;2022-12-07T08:16:18;22.37;;;11.50;;
25409;SDS011;13339;50.840;4.346;2022-12-07T08:18:43;22.57;;;11.97;;
25409;SDS011;13339;50.840;4.346;2022-12-07T08:21:11;22.80;;;14.40;;
25409;SDS011;13339;50.840;4.346;2022-12-07T08:23:38;25.47;;;13.80;;
25409;SDS011;13339;50.840;4.346;2022-12-07T08:26:05;22.83;;;13.63;;
25409;SDS011;13339;50.840;4.346;2022-12-07T08:28:33;25.67;;;13.73;;
25409;SDS011;13339;50.840;4.346;2022-12-07T08:31:02;24.97;;;12.90;;
25409;SDS011;13339;50.840;4.346;2022-12-07T08:33:39;25.43;;;14.23;;
25409;SDS011;13339;50.840;4.346;2022-12-07T08:36:08;21.60;;;13.23;;
25409;SDS011;13339;50.840;4.346;2022-12-07T08:38:36;20.93;;;13.13;;
25409;SDS011;13339;50.840;4.346;2022-12-07T08:41:02;21.63;;;12.97;;
25409;SDS011;13339;50.840;4.346;2022-12-07T08:43:28;22.53;;;13.90;;
25409;SDS011;13339;50.840;4.346;2022-12-07T08:48:31;23.92;;;15.85;;
25409;SDS011;13339;50.840;4.346;2022-12-07T08:51:00;22.87;;;13.53;;
25409;SDS011;13339;50.840;4.346;2022-12-07T08:53:27;23.70;;;13.27;;
25409;SDS011;13339;50.840;4.346;2022-12-07T08:55:54;20.93;;;12.50;;
25409;SDS011;13339;50.840;4.346;2022-12-07T08:58:21;27.87;;;13.03;;
25409;SDS011;13339;50.840;4.346;2022-12-07T09:00:47;15.87;;;11.80;;
25409;SDS011;13339;50.840;4.346;2022-12-07T09:03:12;19.40;;;11.63;;
25409;SDS011;13339;50.840;4.346;2022-12-07T09:05:38;14.27;;;10.13;;
25409;SDS011;13339;50.840;4.346;2022-12-07T09:08:04;17.07;;;10.10;;
25409;SDS011;13339;50.840;4.346;2022-12-07T09:10:30;16.87;;;10.43;;
25409;SDS011;13339;50.840;4.346;2022-12-07T09:12:56;22.30;;;10.87;;
25409;SDS011;13339;50.840;4.346;2022-12-07T09:15:25;16.30;;;10.03;;
25409;SDS011;13339;50.840;4.346;2022-12-07T09:17:52;13.57;;;9.23;;
25409;SDS011;13339;50.840;4.346;2022-12-07T09:20:18;16.93;;;10.03;;
25409;SDS011;13339;50.840;4.346;2022-12-07T09:22:43;13.60;;;8.63;;
25409;SDS011;13339;50.840;4.346;2022-12-07T09:25:09;16.17;;;9.10;;
25409;SDS011;13339;50.840;4.346;2022-12-07T09:27:35;16.93;;;9.00;;
25409;SDS011;13339;50.840;4.346;2022-12-07T09:30:00;18.47;;;10.30;;
25409;SDS011;13339;50.840;4.346;2022-12-07T09:32:26;14.87;;;9.37;;
25409;SDS011;13339;50.840;4.346;2022-12-07T09:34:52;15.32;;;10.20;;
25409;SDS011;13339;50.840;4.346;2022-12-07T09:37:17;13.33;;;8.53;;
25409;SDS011;13339;50.840;4.346;2022-12-07T09:39:43;17.40;;;9.63;;
25409;SDS011;13339;50.840;4.346;2022-12-07T09:42:08;16.77;;;9.53;;
25409;SDS011;13339;50.840;4.346;2022-12-07T09:44:44;12.50;;;9.23;;
25409;SDS011;13339;50.840;4.346;2022-12-07T09:47:10;17.37;;;9.63;;
25409;SDS011;13339;50.840;4.346;2022-12-07T09:49:35;14.27;;;9.17;;
25409;SDS011;13339;50.840;4.346;2022-12-07T09:52:02;14.90;;;8.60;;
25409;SDS011;13339;50.840;4.346;2022-12-07T09:54:29;12.33;;;9.20;;
25409;SDS011;13339;50.840;4.346;2022-12-07T09:56:55;19.67;;;8.47;;
25409;SDS011;13339;50.840;4.346;2022-12-07T09:59:21;17.30;;;8.60;;
25409;SDS011;13339;50.840;4.346;2022-12-07T10:01:48;11.37;;;8.40;;
25409;SDS011;13339;50.840;4.346;2022-12-07T10:04:16;21.13;;;10.20;;
25409;SDS011;13339;50.840;4.346;2022-12-07T10:06:47;14.20;;;8.33;;
25409;SDS011;13339;50.840;4.346;2022-12-07T10:09:16;12.80;;;8.67;;
25409;SDS011;13339;50.840;4.346;2022-12-07T10:14:30;15.37;;;8.93;;
25409;SDS011;13339;50.840;4.346;2022-12-07T10:16:57;18.50;;;9.97;;
25409;SDS011;13339;50.840;4.346;2022-12-07T10:19:27;18.17;;;8.97;;
25409;SDS011;13339;50.840;4.346;2022-12-07T10:22:14;19.83;;;9.43;;
25409;SDS011;13339;50.840;4.346;2022-12-07T10:24:42;20.43;;;9.50;;
25409;SDS011;13339;50.840;4.346;2022-12-07T10:27:17;15.83;;;8.40;;
25409;SDS011;13339;50.840;4.346;2022-12-07T10:29:49;22.80;;;9.57;;
25409;SDS011;13339;50.840;4.346;2022-12-07T10:34:42;16.93;;;8.80;;
25409;SDS011;13339;50.840;4.346;2022-12-07T10:42:22;14.57;;;8.33;;
25409;SDS011;13339;50.840;4.346;2022-12-07T10:44:50;16.57;;;8.90;;
25409;SDS011;13339;50.840;4.346;2022-12-07T10:47:48;17.50;;;8.50;;
25409;SDS011;13339;50.840;4.346;2022-12-07T11:10:04;14.97;;;7.73;;
25409;SDS011;13339;50.840;4.346;2022-12-07T11:24:04;12.30;;;5.03;;
25409;SDS011;13339;50.840;4.346;2022-12-07T11:32:40;13.97;;;5.00;;
25409;SDS011;13339;50.840;4.346;2022-12-07T11:35:12;11.03;;;4.97;;
25409;SDS011;13339;50.840;4.346;2022-12-07T11:37:49;13.87;;;4.70;;
25409;SDS011;13339;50.840;4.346;2022-12-07T11:40:23;11.07;;;5.90;;
25409;SDS011;13339;50.840;4.346;2022-12-07T11:45:32;11.23;;;5.20;;
25409;SDS011;13339;50.840;4.346;2022-12-07T11:48:03;11.43;;;5.97;;
25409;SDS011;13339;50.840;4.346;2022-12-07T11:50:33;10.83;;;5.13;;
25409;SDS011;13339;50.840;4.346;2022-12-07T12:02:00;9.27;;;4.77;;
25409;SDS011;13339;50.840;4.346;2022-12-07T12:06:35;10.30;;;4.70;;
25409;SDS011;13339;50.840;4.346;2022-12-07T12:09:06;12.40;;;4.43;;
25409;SDS011;13339;50.840;4.346;2022-12-07T12:14:30;9.40;;;4.27;;
25409;SDS011;13339;50.840;4.346;2022-12-07T12:22:50;7.40;;;3.87;;
25409;SDS011;13339;50.840;4.346;2022-12-07T12:25:56;7.93;;;4.27;;
25409;SDS011;13339;50.840;4.346;2022-12-07T12:31:16;8.23;;;3.70;;
25409;SDS011;13339;50.840;4.346;2022-12-07T12:33:48;7.70;;;2.77;;
25409;SDS011;13339;50.840;4.346;2022-12-07T12:38:48;9.77;;;2.63;;
25409;SDS011;13339;50.840;4.346;2022-12-07T12:44:03;5.13;;;2.93;;
25409;SDS011;13339;50.840;4.346;2022-12-07T12:51:45;6.57;;;2.97;;
25409;SDS011;13339;50.840;4.346;2022-12-07T13:02:24;10.20;;;3.43;;
25409;SDS011;13339;50.840;4.346;2022-12-07T13:05:01;10.57;;;3.20;;
25409;SDS011;13339;50.840;4.346;2022-12-07T13:13:02;8.90;;;3.43;;
25409;SDS011;13339;50.840;4.346;2022-12-07T13:15:47;37.70;;;11.23;;
25409;SDS011;13339;50.840;4.346;2022-12-07T13:26:02;5.90;;;3.00;;
25409;SDS011;13339;50.840;4.346;2022-12-07T13:28:40;7.37;;;3.33;;
25409;SDS011;13339;50.840;4.346;2022-12-07T13:33:54;16.63;;;4.20;;
25409;SDS011;13339;50.840;4.346;2022-12-07T13:36:21;11.03;;;3.67;;
25409;SDS011;13339;50.840;4.346;2022-12-07T13:38:50;8.57;;;3.80;;
25409;SDS011;13339;50.840;4.346;2022-12-07T13:41:35;6.70;;;2.60;;
25409;SDS011;13339;50.840;4.346;2022-12-07T13:44:02;14.47;;;3.53;;
25409;SDS011;13339;50.840;4.346;2022-12-07T13:49:23;10.10;;;3.60;;
25409;SDS011;13339;50.840;4.346;2022-12-07T13:52:06;11.47;;;4.07;;
25409;SDS011;13339;50.840;4.346;2022-12-07T13:54:46;7.07;;;3.70;;
25409;SDS011;13339;50.840;4.346;2022-12-07T13:57:27;16.07;;;3.33;;
25409;SDS011;13339;50.840;4.346;2022-12-07T13:59:55;9.90;;;3.90;;
25409;SDS011;13339;50.840;4.346;2022-12-07T14:05:05;10.53;;;3.43;;
25409;SDS011;13339;50.840;4.346;2022-12-07T14:07:48;10.13;;;3.20;;
25409;SDS011;13339;50.840;4.346;2022-12-07T14:12:51;7.00;;;2.37;;
25409;SDS011;13339;50.840;4.346;2022-12-07T14:15:21;6.43;;;2.13;;
25409;SDS011;13339;50.840;4.346;2022-12-07T14:17:49;6.30;;;2.47;;
25409;SDS011;13339;50.840;4.346;2022-12-07T14:23:01;5.83;;;2.77;;
25409;SDS011;13339;50.840;4.346;2022-12-07T14:25:43;13.27;;;4.70;;
25409;SDS011;13339;50.840;4.346;2022-12-07T14:28:24;11.77;;;5.90;;
25409;SDS011;13339;50.840;4.346;2022-12-07T14:30:50;11.87;;;4.47;;
25409;SDS011;13339;50.840;4.346;2022-12-07T14:33:22;7.57;;;4.07;;
25409;SDS011;13339;50.840;4.346;2022-12-07T14:35:49;7.90;;;3.40;;
25409;SDS011;13339;50.840;4.346;2022-12-07T14:38:14;4.83;;;2.67;;
25409;SDS011;13339;50.840;4.346;2022-12-07T14:40:40;6.43;;;2.43;;
25409;SDS011;13339;50.840;4.346;2022-12-07T14:43:10;7.60;;;2.30;;
25409;SDS011;13339;50.840;4.346;2022-12-07T14:45:39;8.60;;;2.10;;
25409;SDS011;13339;50.840;4.346;2022-12-07T14:48:05;6.93;;;2.40;;
25409;SDS011;13339;50.840;4.346;2022-12-07T14:50:34;4.90;;;1.97;;
25409;SDS011;13339;50.840;4.346;2022-12-07T14:53:04;5.63;;;2.60;;
25409;SDS011;13339;50.840;4.346;2022-12-07T14:55:37;7.83;;;2.87;;
25409;SDS011;13339;50.840;4.346;2022-12-07T14:58:03;8.30;;;4.10;;
25409;SDS011;13339;50.840;4.346;2022-12-07T15:00:29;12.30;;;4.80;;
25409;SDS011;13339;50.840;4.346;2022-12-07T15:02:55;10.57;;;4.30;;
25409;SDS011;13339;50.840;4.346;2022-12-07T15:05:21;7.63;;;4.13;;
25409;SDS011;13339;50.840;4.346;2022-12-07T15:07:47;6.93;;;3.83;;
25409;SDS011;13339;50.840;4.346;2022-12-07T15:10:15;8.93;;;4.30;;
25409;SDS011;13339;50.840;4.346;2022-12-07T15:12:45;7.37;;;4.00;;
25409;SDS011;13339;50.840;4.346;2022-12-07T15:15:11;11.40;;;3.67;;
25409;SDS011;13339;50.840;4.346;2022-12-07T15:17:37;8.63;;;3.30;;
25409;SDS011;13339;50.840;4.346;2022-12-07T15:20:03;6.83;;;3.63;;
25409;SDS011;13339;50.840;4.346;2022-12-07T15:22:29;6.23;;;3.33;;
25409;SDS011;13339;50.840;4.346;2022-12-07T15:24:56;7.27;;;3.50;;
25409;SDS011;13339;50.840;4.346;2022-12-07T15:27:22;8.90;;;3.80;;
25409;SDS011;13339;50.840;4.346;2022-12-07T15:29:47;13.90;;;4.20;;
25409;SDS011;13339;50.840;4.346;2022-12-07T15:32:13;13.07;;;4.33;;
25409;SDS011;13339;50.840;4.346;2022-12-07T15:34:39;9.50;;;4.40;;
25409;SDS011;13339;50.840;4.346;2022-12-07T15:37:04;7.40;;;3.90;;
25409;SDS011;13339;50.840;4.346;2022-12-07T15:39:30;8.97;;;4.93;;
25409;SDS011;13339;50.840;4.346;2022-12-07T15:41:56;9.13;;;5.90;;
25409;SDS011;13339;50.840;4.346;2022-12-07T15:44:21;9.10;;;5.53;;
25409;SDS011;13339;50.840;4.346;2022-12-07T15:47:05;7.87;;;3.63;;
25409;SDS011;13339;50.840;4.346;2022-12-07T15:49:31;8.17;;;4.33;;
25409;SDS011;13339;50.840;4.346;2022-12-07T15:51:57;11.77;;;5.40;;
25409;SDS011;13339;50.840;4.346;2022-12-07T15:54:26;9.17;;;6.00;;
25409;SDS011;13339;50.840;4.346;2022-12-07T15:56:53;11.97;;;6.63;;
25409;SDS011;13339;50.840;4.346;2022-12-07T15:59:19;10.17;;;6.53;;
25409;SDS011;13339;50.840;4.346;2022-12-07T16:01:45;10.70;;;5.87;;
25409;SDS011;13339;50.840;4.346;2022-12-07T16:04:10;8.83;;;5.33;;
25409;SDS011;13339;50.840;4.346;2022-12-07T16:06:36;10.10;;;5.57;;
25409;SDS011;13339;50.840;4.346;2022-12-07T16:09:02;7.57;;;4.07;;
25409;SDS011;13339;50.840;4.346;2022-12-07T16:11:28;8.60;;;5.20;;
25409;SDS011;13339;50.840;4.346;2022-12-07T16:13:53;7.77;;;4.37;;
25409;SDS011;13339;50.840;4.346;2022-12-07T16:16:19;11.13;;;4.57;;
25409;SDS011;13339;50.840;4.346;2022-12-07T16:18:47;9.80;;;4.60;;
25409;SDS011;13339;50.840;4.346;2022-12-07T16:21:14;8.50;;;4.37;;
25409;SDS011;13339;50.840;4.346;2022-12-07T16:23:40;8.07;;;4.00;;
25409;SDS011;13339;50.840;4.346;2022-12-07T16:26:08;10.10;;;4.60;;
25409;SDS011;13339;50.840;4.346;2022-12-07T16:28:35;8.60;;;3.93;;
25409;SDS011;13339;50.840;4.346;2022-12-07T16:31:04;8.03;;;4.50;;
25409;SDS011;13339;50.840;4.346;2022-12-07T16:33:34;10.27;;;4.90;;
25409;SDS011;13339;50.840;4.346;2022-12-07T16:36:01;7.47;;;4.17;;
25409;SDS011;13339;50.840;4.346;2022-12-07T16:38:28;7.67;;;4.80;;
25409;SDS011;13339;50.840;4.346;2022-12-07T16:40:54;8.57;;;4.43;;
25409;SDS011;13339;50.840;4.346;2022-12-07T16:43:20;9.37;;;5.07;;
25409;SDS011;13339;50.840;4.346;2022-12-07T16:45:46;7.40;;;4.70;;
25409;SDS011;13339;50.840;4.346;2022-12-07T16:48:12;6.63;;;4.30;;
25409;SDS011;13339;50.840;4.346;2022-12-07T16:50:39;9.27;;;5.20;;
25409;SDS011;13339;50.840;4.346;2022-12-07T16:53:07;9.20;;;5.13;;
25409;SDS011;13339;50.840;4.346;2022-12-07T16:55:39;5.20;;;4.20;;
25409;SDS011;13339;50.840;4.346;2022-12-07T16:58:07;8.67;;;4.50;;
25409;SDS011;13339;50.840;4.346;2022-12-07T17:00:33;6.63;;;4.17;;
25409;SDS011;13339;50.840;4.346;2022-12-07T17:02:59;7.00;;;4.00;;
25409;SDS011;13339;50.840;4.346;2022-12-07T17:05:25;12.10;;;4.30;;
25409;SDS011;13339;50.840;4.346;2022-12-07T17:07:53;8.50;;;4.53;;